Time;durP1;ratioP1;P1;durP2;ratioP2;P2;SDS_P1;SDS_P2;PMS_P1;PMS_P2;Temp;Humidity;BMP_temperature;BMP_pressure;BME280_temperature;BME280_humidity;BME280_pressure;Samples;Min_cycle;Max_cycle;Signal;HPM_P1;HPM_P2
2024/01/14 00:00:37;;;;;;;0.20;0.20;;;;;;;-0.84;60.79;101319.84;4923335;28;20026;-83
2024/01/14 00:03:04;;;;;;;0.20;0.20;;;;;;;-0.95;61.35;101318.06;4955801;28;20041;-83
2024/01/14 00:05:29;;;;;;;0.20;0.20;;;;;;;-0.92;61.30;101314.69;4939541;28;20077;-83
2024/01/14 00:07:56;;;;;;;0.20;0.20;;;;;;;-0.84;61.20;101309.69;4939070;28;20109;-84
2024/01/14 00:10:22;;;;;;;0.20;0.20;;;;;;;-0.92;61.67;101310.47;4939611;28;20081;-83
2024/01/14 00:12:47;;;;;;;0.20;0.20;;;;;;;-0.90;61.92;101310.47;4923072;28;20058;-83
2024/01/14 00:15:14;;;;;;;0.20;0.20;;;;;;;-0.97;61.72;101291.81;4923320;28;20027;-83
2024/01/14 00:17:40;;;;;;;0.20;0.20;;;;;;;-0.78;61.29;101305.53;4923601;28;20023;-83
2024/01/14 00:20:07;;;;;;;0.10;0.10;;;;;;;-0.76;61.26;101311.47;4923193;28;20034;-83
2024/01/14 00:22:33;;;;;;;0.20;0.20;;;;;;;-0.79;61.63;101313.97;4923329;28;20054;-84
2024/01/14 00:24:58;;;;;;;0.20;0.20;;;;;;;-0.97;61.58;101299.44;4938961;28;20058;-83
2024/01/14 00:27:24;;;;;;;0.10;0.10;;;;;;;-1.06;62.48;101284.13;4954771;28;20055;-83
2024/01/14 00:29:50;;;;;;;0.20;0.20;;;;;;;-1.06;63.05;101301.88;4954561;28;20081;-83
2024/01/14 00:32:15;;;;;;;0.20;0.20;;;;;;;-1.10;62.93;101297.59;4955090;28;20041;-84
2024/01/14 00:34:41;;;;;;;0.20;0.20;;;;;;;-1.25;63.19;101293.25;4923086;28;20121;-83
2024/01/14 00:37:06;;;;;;;0.20;0.20;;;;;;;-1.06;62.77;101306.97;4938975;28;20031;-83
2024/01/14 00:39:39;;;;;;;0.20;0.20;;;;;;;-1.09;62.56;101299.31;4923057;28;20031;-83
2024/01/14 00:42:07;;;;;;;0.20;0.20;;;;;;;-1.18;62.57;101300.09;4922931;28;20424;-83
2024/01/14 00:44:33;;;;;;;0.10;0.10;;;;;;;-1.17;62.40;101306.03;4938837;28;20105;-83
2024/01/14 00:46:58;;;;;;;0.20;0.20;;;;;;;-1.18;62.86;101294.13;4938797;28;20062;-84
2024/01/14 00:49:24;;;;;;;0.15;0.15;;;;;;;-1.23;63.21;101283.09;4938636;28;20035;-83
2024/01/14 00:51:49;;;;;;;0.20;0.20;;;;;;;-1.26;63.87;101290.69;4938801;28;20039;-83
2024/01/14 00:54:15;;;;;;;0.20;0.20;;;;;;;-1.25;63.81;101287.31;4938522;28;20497;-84
2024/01/14 00:56:41;;;;;;;0.20;0.20;;;;;;;-1.24;64.01;101289.00;4922477;28;20528;-83
2024/01/14 00:59:07;;;;;;;0.10;0.10;;;;;;;-1.30;64.02;101287.25;4938685;28;20027;-83
2024/01/14 01:01:32;;;;;;;0.20;0.20;;;;;;;-1.39;63.92;101268.53;4922759;28;20065;-83
2024/01/14 01:03:58;;;;;;;0.10;0.10;;;;;;;-1.33;63.98;101278.75;4954484;28;20031;-83
2024/01/14 01:06:23;;;;;;;0.20;0.20;;;;;;;-1.61;63.49;101227.72;4922576;28;20046;-83
2024/01/14 01:08:49;;;;;;;0.20;0.20;;;;;;;-1.40;63.67;101261.75;4938454;28;20101;-84
2024/01/14 01:11:16;;;;;;;0.20;0.20;;;;;;;-1.33;63.39;101254.22;4954295;28;20023;-84
2024/01/14 01:13:41;;;;;;;0.20;0.20;;;;;;;-1.46;64.31;101243.13;4971442;28;20535;-84
2024/01/14 01:16:07;;;;;;;0.20;0.20;;;;;;;-1.41;63.57;101252.44;4922638;28;20031;-83
2024/01/14 01:18:32;;;;;;;0.10;0.10;;;;;;;-1.41;64.58;101239.75;4938440;28;20033;-84
2024/01/14 01:20:58;;;;;;;0.10;0.10;;;;;;;-1.51;64.61;101244.75;4971738;28;20023;-83
2024/01/14 01:23:23;;;;;;;0.20;0.20;;;;;;;-1.58;64.89;101235.34;4954652;28;20386;-84
2024/01/14 01:25:49;;;;;;;0.20;0.20;;;;;;;-1.68;64.89;101213.25;4922298;28;20512;-83
2024/01/14 01:28:15;;;;;;;0.20;0.20;;;;;;;-1.75;65.41;101224.19;4954412;28;20082;-83
2024/01/14 01:30:40;;;;;;;0.20;0.20;;;;;;;-1.74;64.84;101226.75;4938330;28;20031;-83
2024/01/14 01:33:06;;;;;;;0.20;0.20;;;;;;;-1.61;64.38;101209.97;4922244;28;20026;-84
2024/01/14 01:35:31;;;;;;;0.10;0.10;;;;;;;-1.63;64.23;101213.31;4940963;28;20062;-83
2024/01/14 01:37:57;;;;;;;0.20;0.20;;;;;;;-1.55;64.31;101206.66;4942042;28;20035;-83
2024/01/14 01:40:22;;;;;;;0.10;0.10;;;;;;;-1.58;64.03;101207.44;4941569;28;20033;-84
2024/01/14 01:42:49;;;;;;;0.20;0.20;;;;;;;-1.70;64.67;101199.72;4941960;28;20082;-84
2024/01/14 01:45:15;;;;;;;0.20;0.20;;;;;;;-1.77;65.61;101191.22;4926433;28;20416;-83
2024/01/14 01:47:40;;;;;;;0.20;0.20;;;;;;;-1.75;65.47;101186.16;4941817;28;20122;-83
2024/01/14 01:50:07;;;;;;;0.20;0.20;;;;;;;-1.78;65.53;101178.50;4941644;28;20032;-83
2024/01/14 01:52:32;;;;;;;0.20;0.20;;;;;;;-1.80;66.05;101178.47;4957840;28;20022;-83
2024/01/14 01:54:58;;;;;;;0.10;0.10;;;;;;;-1.78;65.71;101165.81;4941535;28;20038;-83
2024/01/14 01:57:23;;;;;;;0.20;0.20;;;;;;;-1.84;66.13;101171.69;4925841;28;20027;-83
2024/01/14 01:59:49;;;;;;;0.20;0.20;;;;;;;-1.84;66.48;101168.31;4941668;28;20034;-83
2024/01/14 02:02:14;;;;;;;0.20;0.20;;;;;;;-1.82;65.95;101161.56;4941748;28;20033;-83
2024/01/14 02:04:40;;;;;;;0.20;0.20;;;;;;;-1.91;66.06;101151.31;4957415;28;20105;-84
2024/01/14 02:07:06;;;;;;;0.20;0.20;;;;;;;-1.75;65.83;101170.94;4941405;28;20054;-84
2024/01/14 02:09:32;;;;;;;0.20;0.20;;;;;;;-1.85;65.54;101161.53;4925277;28;20031;-83
2024/01/14 02:11:58;;;;;;;0.10;0.10;;;;;;;-1.84;65.44;101159.00;4941287;28;20035;-83
2024/01/14 02:14:24;;;;;;;0.20;0.20;;;;;;;-1.86;65.77;101159.84;4925298;28;20029;-84
2024/01/14 02:16:49;;;;;;;0.20;0.20;;;;;;;-1.99;65.67;101145.31;4941751;28;20106;-83
2024/01/14 02:19:15;;;;;;;0.20;0.20;;;;;;;-1.97;65.72;101156.31;4957255;28;20465;-83
2024/01/14 02:21:44;;;;;;;0.20;0.20;;;;;;;-1.92;65.99;101149.63;4957379;28;20466;-84
2024/01/14 02:24:22;;;;;;;0.10;0.10;;;;;;;-1.90;65.61;101153.84;4941205;28;20038;-83
2024/01/14 02:26:47;;;;;;;0.20;0.20;;;;;;;-1.97;65.76;101151.25;4974137;28;20023;-84
2024/01/14 02:29:13;;;;;;;0.20;0.20;;;;;;;-2.10;66.15;101130.81;4925184;28;20035;-83
2024/01/14 02:31:39;;;;;;;0.13;0.13;;;;;;;-1.94;66.46;101157.22;4941246;28;20068;-83
2024/01/14 02:34:06;;;;;;;0.20;0.20;;;;;;;-1.95;66.38;101155.50;4941035;28;20030;-83
2024/01/14 02:36:33;;;;;;;0.10;0.10;;;;;;;-2.19;66.87;101114.66;4942011;28;20473;-83
2024/01/14 02:38:58;;;;;;;0.20;0.20;;;;;;;-2.00;65.95;101125.84;4940577;28;20109;-84
2024/01/14 02:41:24;;;;;;;0.20;0.20;;;;;;;-1.99;66.25;101137.69;4940726;28;20026;-84
2024/01/14 02:43:50;;;;;;;0.10;0.10;;;;;;;-2.10;66.92;101129.97;4940804;28;20035;-83
2024/01/14 02:46:15;;;;;;;0.10;0.10;;;;;;;-2.05;66.98;101134.28;4939600;28;20460;-84
2024/01/14 02:48:41;;;;;;;0.10;0.10;;;;;;;-2.04;66.72;101130.91;4941001;28;20121;-83
2024/01/14 02:51:06;;;;;;;0.10;0.10;;;;;;;-1.99;65.59;101127.56;4940713;28;20035;-83
2024/01/14 02:53:32;;;;;;;0.10;0.10;;;;;;;-2.09;65.41;101119.84;4940169;28;20516;-83
2024/01/14 02:55:58;;;;;;;0.20;0.20;;;;;;;-2.08;64.90;101118.16;4956305;28;20481;-84
2024/01/14 02:58:24;;;;;;;0.20;0.20;;;;;;;-2.21;64.41;101107.06;4940453;28;20038;-83
2024/01/14 03:00:49;;;;;;;0.10;0.10;;;;;;;-2.28;64.30;101112.03;4940376;28;20062;-83
2024/01/14 03:03:15;;;;;;;0.15;0.15;;;;;;;-2.26;64.14;101092.63;4940582;28;20488;-83
2024/01/14 03:05:40;;;;;;;0.20;0.20;;;;;;;-2.21;65.29;101101.13;4924484;28;20516;-83
2024/01/14 03:08:06;;;;;;;0.20;0.20;;;;;;;-2.19;65.93;101091.84;4940191;28;20515;-83
2024/01/14 03:10:31;;;;;;;0.20;0.20;;;;;;;-2.04;65.77;101100.47;4940447;28;20035;-83
2024/01/14 03:12:57;;;;;;;0.10;0.10;;;;;;;-1.94;65.34;101108.19;4940777;28;20400;-84
2024/01/14 03:15:22;;;;;;;0.20;0.20;;;;;;;-2.02;65.55;101091.19;4940202;28;20504;-83
2024/01/14 03:17:48;;;;;;;0.10;0.10;;;;;;;-1.93;65.24;101099.75;4940550;28;20034;-83
2024/01/14 03:20:13;;;;;;;0.10;0.10;;;;;;;-1.82;64.50;101085.47;4955971;28;20440;-83
2024/01/14 03:22:39;;;;;;;0.10;0.10;;;;;;;-1.78;63.77;101094.78;4939951;28;20061;-83
2024/01/14 03:25:05;;;;;;;0.10;0.10;;;;;;;-1.70;63.77;101095.72;4940127;28;20436;-83
2024/01/14 03:27:30;;;;;;;0.10;0.10;;;;;;;-1.71;63.38;101099.09;4940065;28;20423;-83
2024/01/14 03:29:56;;;;;;;0.20;0.20;;;;;;;-1.76;63.17;101090.59;4940038;28;20062;-83
2024/01/14 03:32:21;;;;;;;0.20;0.20;;;;;;;-1.62;63.12;101101.72;4924191;28;20042;-83
2024/01/14 03:34:47;;;;;;;0.20;0.20;;;;;;;-1.68;62.68;101094.03;4939691;28;20472;-84
2024/01/14 03:37:12;;;;;;;0.10;0.10;;;;;;;-1.61;63.06;101088.19;4955652;28;20468;-83
2024/01/14 03:39:38;;;;;;;0.20;0.20;;;;;;;-1.59;63.72;101090.72;4939545;28;20452;-84
2024/01/14 03:42:03;;;;;;;0.20;0.20;;;;;;;-1.66;64.09;101086.47;4955720;28;20030;-83
2024/01/14 03:44:29;;;;;;;0.20;0.20;;;;;;;-1.86;64.15;101066.84;4955513;28;20386;-83
2024/01/14 03:46:54;;;;;;;0.20;0.20;;;;;;;-1.84;64.66;101071.94;4939639;28;20057;-84
2024/01/14 03:49:20;;;;;;;0.20;0.20;;;;;;;-1.96;64.61;101052.38;4939920;28;20038;-83
2024/01/14 03:51:45;;;;;;;0.20;0.20;;;;;;;-1.97;64.44;101027.00;4972167;28;20480;-83
2024/01/14 03:54:11;;;;;;;0.20;0.20;;;;;;;-1.82;64.44;101060.09;4955299;28;20508;-84
2024/01/14 03:56:36;;;;;;;0.20;0.20;;;;;;;-1.86;64.52;101058.38;4972550;28;20500;-83
2024/01/14 03:59:02;;;;;;;0.10;0.10;;;;;;;-1.95;64.46;101063.38;4939776;28;20035;-83
2024/01/14 04:01:28;;;;;;;0.10;0.10;;;;;;;-2.04;64.87;101062.44;4923576;28;20082;-83
2024/01/14 04:03:53;;;;;;;0.20;0.20;;;;;;;-2.02;64.92;101076.00;4939092;28;20037;-83
2024/01/14 04:06:20;;;;;;;0.20;0.20;;;;;;;-2.00;65.58;101080.22;4972427;28;20074;-83
2024/01/14 04:08:46;;;;;;;0.20;0.20;;;;;;;-2.02;64.94;101082.75;4923743;28;20058;-83
2024/01/14 04:11:12;;;;;;;0.20;0.20;;;;;;;-1.95;64.35;101083.66;4939009;28;20473;-83
2024/01/14 04:13:37;;;;;;;0.20;0.20;;;;;;;-2.05;64.98;101063.28;4939008;28;20090;-83
2024/01/14 04:16:03;;;;;;;0.20;0.20;;;;;;;-2.04;65.18;101059.91;4954967;28;20038;-83
2024/01/14 04:18:29;;;;;;;0.20;0.20;;;;;;;-2.00;66.13;101059.94;4939566;28;20516;-83
2024/01/14 04:20:55;;;;;;;0.20;0.20;;;;;;;-1.88;65.44;101058.34;4939145;28;20042;-83
2024/01/14 04:23:20;;;;;;;0.20;0.20;;;;;;;-1.96;65.75;101051.53;4939311;28;20035;-83
2024/01/14 04:25:46;;;;;;;0.20;0.20;;;;;;;-2.00;65.78;101045.56;4938979;28;20078;-83
2024/01/14 04:28:11;;;;;;;0.20;0.20;;;;;;;-2.05;67.82;101043.00;4972581;28;20057;-83
2024/01/14 04:30:37;;;;;;;0.20;0.20;;;;;;;-2.05;68.16;101025.25;4938942;28;20346;-83
2024/01/14 04:33:03;;;;;;;0.10;0.10;;;;;;;-2.16;69.79;101026.84;4938883;28;20026;-83
2024/01/14 04:35:28;;;;;;;0.10;0.10;;;;;;;-2.00;70.41;101040.50;4938937;28;20063;-83
2024/01/14 04:37:54;;;;;;;0.20;0.20;;;;;;;-2.05;68.84;101037.94;4938843;28;20473;-83
2024/01/14 04:40:19;;;;;;;0.20;0.20;;;;;;;-2.03;69.62;101035.41;4938813;28;20478;-83
2024/01/14 04:42:45;;;;;;;0.20;0.20;;;;;;;-1.91;69.59;101039.75;4954826;28;20408;-83
2024/01/14 04:45:10;;;;;;;0.20;0.20;;;;;;;-1.97;69.81;101030.38;4954481;28;20037;-82
2024/01/14 04:47:36;;;;;;;0.20;0.20;;;;;;;-2.03;69.33;101030.34;4938879;28;20030;-83
2024/01/14 04:50:01;;;;;;;0.20;0.20;;;;;;;-1.91;68.56;101045.66;4938235;28;20038;-83
2024/01/14 04:52:27;;;;;;;0.20;0.20;;;;;;;-1.90;68.00;101031.28;4922831;28;20037;-83
2024/01/14 04:54:52;;;;;;;0.20;0.20;;;;;;;-2.02;67.78;101037.97;4938562;28;20420;-83
2024/01/14 04:57:18;;;;;;;0.20;0.20;;;;;;;-2.04;67.99;101019.34;4922802;28;20473;-83
2024/01/14 04:59:44;;;;;;;0.20;0.20;;;;;;;-2.09;68.35;101028.59;4954318;28;20066;-83
2024/01/14 05:02:10;;;;;;;0.20;0.20;;;;;;;-2.19;68.94;101019.19;4938918;28;20026;-83
2024/01/14 05:04:35;;;;;;;0.20;0.20;;;;;;;-2.27;69.28;101033.47;4954558;28;20073;-83
2024/01/14 05:07:01;;;;;;;0.20;0.20;;;;;;;-2.37;70.01;101024.94;4938631;28;20035;-82
2024/01/14 05:09:26;;;;;;;0.20;0.20;;;;;;;-2.33;69.67;101028.38;4939455;28;20034;-83
2024/01/14 05:11:52;;;;;;;0.20;0.20;;;;;;;-2.22;69.35;101039.47;4942355;28;20401;-84
2024/01/14 05:14:17;;;;;;;0.20;0.20;;;;;;;-2.21;69.03;101025.94;4942583;28;20035;-83
2024/01/14 05:16:43;;;;;;;0.20;0.20;;;;;;;-2.17;68.80;101012.44;4942228;28;20028;-83
2024/01/14 05:19:09;;;;;;;0.20;0.20;;;;;;;-2.19;68.90;101024.28;4926208;28;20027;-83
2024/01/14 05:21:34;;;;;;;0.10;0.10;;;;;;;-2.23;68.98;101021.72;4942268;28;20105;-83
2024/01/14 05:24:00;;;;;;;0.20;0.20;;;;;;;-2.32;69.04;101019.94;4957952;28;20468;-83
2024/01/14 05:26:26;;;;;;;0.20;0.20;;;;;;;-2.33;68.89;101026.69;4942124;28;20122;-83
2024/01/14 05:28:51;;;;;;;0.20;0.20;;;;;;;-2.39;68.87;100997.88;4942285;28;20022;-83
2024/01/14 05:31:17;;;;;;;0.20;0.20;;;;;;;-2.30;69.42;101020.78;4942229;28;20085;-83
2024/01/14 05:33:43;;;;;;;0.20;0.20;;;;;;;-2.28;69.95;101008.97;4941467;28;20615;-83
2024/01/14 05:36:08;;;;;;;0.20;0.20;;;;;;;-2.34;69.07;100996.25;4942218;28;20041;-83
2024/01/14 05:38:34;;;;;;;0.20;0.20;;;;;;;-2.45;69.29;100982.66;4926245;28;20031;-83
2024/01/14 05:40:59;;;;;;;0.20;0.20;;;;;;;-2.39;69.15;101002.97;4942048;28;20038;-83
2024/01/14 05:43:25;;;;;;;0.20;0.20;;;;;;;-2.28;68.68;101005.59;4941968;28;20026;-83
2024/01/14 05:45:50;;;;;;;0.20;0.20;;;;;;;-2.36;68.41;100986.13;4942236;28;20034;-83
2024/01/14 05:48:17;;;;;;;0.20;0.20;;;;;;;-2.30;68.66;100995.44;4926165;28;20038;-83
2024/01/14 05:50:42;;;;;;;0.10;0.10;;;;;;;-2.27;68.29;101004.75;4942079;28;20496;-83
2024/01/14 05:53:08;;;;;;;0.20;0.20;;;;;;;-2.35;68.48;101008.09;4942131;28;20043;-83
2024/01/14 05:55:33;;;;;;;0.20;0.20;;;;;;;-2.51;68.86;101010.44;4925929;28;20042;-83
2024/01/14 05:57:59;;;;;;;0.20;0.20;;;;;;;-2.73;69.14;100972.22;4957676;28;20034;-84
2024/01/14 06:00:25;;;;;;;0.20;0.20;;;;;;;-2.62;69.48;100982.47;4941276;28;20034;-85
2024/01/14 06:02:50;;;;;;;0.20;0.20;;;;;;;-2.54;69.37;100992.69;4941709;28;20030;-83
2024/01/14 06:05:16;;;;;;;0.20;0.20;;;;;;;-2.68;70.07;100983.25;4941457;28;20053;-83
2024/01/14 06:07:42;;;;;;;0.10;0.10;;;;;;;-2.57;69.89;101000.22;4941727;28;20081;-83
2024/01/14 06:10:08;;;;;;;0.20;0.20;;;;;;;-2.53;69.74;100999.44;4925607;28;20034;-83
2024/01/14 06:12:34;;;;;;;0.20;0.20;;;;;;;-2.48;69.24;101005.41;4941181;28;20027;-83
2024/01/14 06:14:59;;;;;;;0.20;0.20;;;;;;;-2.52;68.37;100991.00;4941172;28;20042;-83
2024/01/14 06:17:25;;;;;;;0.20;0.20;;;;;;;-2.48;68.75;100988.50;4941408;28;21593;-83
2024/01/14 06:19:51;;;;;;;0.20;0.20;;;;;;;-2.48;68.90;100962.31;4925237;28;20457;-83
2024/01/14 06:22:16;;;;;;;0.20;0.20;;;;;;;-2.39;69.53;100982.69;4941235;28;20465;-83
2024/01/14 06:24:44;;;;;;;0.20;0.20;;;;;;;-2.28;69.56;100987.84;4925459;28;20053;-83
2024/01/14 06:27:09;;;;;;;0.20;0.20;;;;;;;-2.27;69.12;100979.41;4925442;28;20512;-83
2024/01/14 06:29:35;;;;;;;0.20;0.20;;;;;;;-2.19;69.10;100991.31;4940697;28;20059;-83
2024/01/14 06:32:00;;;;;;;0.20;0.20;;;;;;;-2.25;68.69;100978.59;4940935;28;20045;-82
2024/01/14 06:34:26;;;;;;;0.20;0.20;;;;;;;-2.30;68.80;100957.44;4941081;28;20086;-83
2024/01/14 06:36:52;;;;;;;0.20;0.20;;;;;;;-2.07;69.00;100983.81;4941024;28;20031;-83
2024/01/14 06:39:17;;;;;;;0.20;0.20;;;;;;;-1.95;68.51;100994.91;4925271;28;20061;-83
2024/01/14 06:41:43;;;;;;;0.20;0.20;;;;;;;-2.08;68.21;100968.59;4925051;28;20030;-83
2024/01/14 06:44:08;;;;;;;0.20;0.20;;;;;;;-1.90;67.81;100975.50;4941014;28;20031;-83
2024/01/14 06:46:34;;;;;;;0.20;0.20;;;;;;;-1.98;67.42;100972.91;4940786;28;20031;-83
2024/01/14 06:49:00;;;;;;;0.20;0.20;;;;;;;-1.92;67.63;100979.72;4940900;28;20038;-82
2024/01/14 06:51:25;;;;;;;0.10;0.10;;;;;;;-1.86;67.69;100992.47;4924690;28;20069;-83
2024/01/14 06:53:51;;;;;;;0.20;0.20;;;;;;;-1.88;67.10;100994.09;4940502;28;20121;-83
2024/01/14 06:56:18;;;;;;;0.10;0.10;;;;;;;-1.93;67.48;100990.69;4940655;28;20046;-83
2024/01/14 06:58:43;;;;;;;0.20;0.20;;;;;;;-1.88;67.62;100986.50;4956456;28;20054;-83
2024/01/14 07:01:09;;;;;;;0.20;0.20;;;;;;;-1.83;67.04;100973.03;4940711;28;20089;-83
2024/01/14 07:03:34;;;;;;;0.20;0.20;;;;;;;-1.81;67.12;100978.09;4940511;28;20030;-83
2024/01/14 07:06:00;;;;;;;0.20;0.20;;;;;;;-1.86;67.93;100969.63;4940314;28;20050;-83
2024/01/14 07:08:25;;;;;;;0.20;0.20;;;;;;;-1.90;67.50;100945.06;4940380;28;20114;-83
2024/01/14 07:10:51;;;;;;;0.10;0.10;;;;;;;-1.67;67.63;100970.56;4940330;28;20062;-83
2024/01/14 07:13:17;;;;;;;0.10;0.10;;;;;;;-1.68;68.01;100969.72;4940173;28;20058;-83
2024/01/14 07:15:43;;;;;;;0.10;0.10;;;;;;;-1.67;67.82;100974.00;4973497;28;20027;-83
2024/01/14 07:18:08;;;;;;;0.20;0.20;;;;;;;-1.56;67.06;100981.66;4940098;28;20118;-83
2024/01/14 07:20:34;;;;;;;0.20;0.20;;;;;;;-1.65;67.42;100961.31;4940192;28;20481;-83
2024/01/14 07:22:59;;;;;;;0.20;0.20;;;;;;;-1.55;67.00;100981.69;4940130;28;20489;-83
2024/01/14 07:25:25;;;;;;;0.20;0.20;;;;;;;-1.55;67.10;100966.44;4940098;28;20038;-83
2024/01/14 07:27:51;;;;;;;0.20;0.20;;;;;;;-1.54;66.96;100960.53;4923778;28;20121;-83
2024/01/14 07:30:18;;;;;;;0.20;0.20;;;;;;;-1.52;67.35;100968.16;4939933;28;20113;-83
2024/01/14 07:32:45;;;;;;;0.20;0.20;;;;;;;-1.66;67.46;100931.72;4939468;28;20027;-83
2024/01/14 07:35:11;;;;;;;0.20;0.20;;;;;;;-1.35;66.99;100953.88;4939701;28;20125;-82
2024/01/14 07:37:37;;;;;;;0.20;0.20;;;;;;;-1.25;67.03;100935.31;4940046;28;20121;-83
2024/01/14 07:40:02;;;;;;;0.20;0.20;;;;;;;-1.09;67.06;100958.19;4939874;28;20145;-83
2024/01/14 07:42:28;;;;;;;0.20;0.20;;;;;;;-1.16;67.25;100942.09;4939763;28;20039;-83
2024/01/14 07:44:54;;;;;;;0.20;0.20;;;;;;;-1.16;67.69;100944.66;4939887;28;20031;-83
2024/01/14 07:47:20;;;;;;;0.20;0.20;;;;;;;-1.18;67.87;100944.66;4955693;28;20508;-83
2024/01/14 07:49:48;;;;;;;0.20;0.20;;;;;;;-1.05;68.20;100948.06;4939531;28;20034;-83
2024/01/14 07:52:17;;;;;;;0.20;0.20;;;;;;;-0.99;67.77;100945.53;4940640;28;20507;-82
2024/01/14 07:54:43;;;;;;;0.20;0.20;;;;;;;-0.88;67.34;100943.06;4939575;28;20027;-83
2024/01/14 07:57:09;;;;;;;0.10;0.10;;;;;;;-0.60;66.77;100966.81;4939447;28;20031;-83
2024/01/14 07:59:34;;;;;;;0.10;0.10;;;;;;;-0.55;66.23;100952.44;4955524;28;20085;-83
2024/01/14 08:02:00;;;;;;;0.20;0.20;;;;;;;-0.38;65.52;100953.31;4955007;28;20034;-83
2024/01/14 08:04:26;;;;;;;0.20;0.20;;;;;;;-0.24;64.53;100958.41;4939301;28;20469;-83
2024/01/14 08:06:51;;;;;;;0.20;0.20;;;;;;;-0.27;64.56;100952.47;4955144;28;20063;-83
2024/01/14 08:09:17;;;;;;;0.20;0.20;;;;;;;-0.13;63.97;100971.13;4955418;28;20086;-83
2024/01/14 08:11:42;;;;;;;0.20;0.20;;;;;;;-0.20;64.37;100970.25;4938888;28;20541;-83
2024/01/14 08:14:08;;;;;;;0.20;0.20;;;;;;;-0.16;63.61;100966.03;4939236;28;20038;-83
2024/01/14 08:16:34;;;;;;;0.20;0.20;;;;;;;-0.16;63.08;100945.69;4955181;28;20038;-83
2024/01/14 08:18:59;;;;;;;0.20;0.20;;;;;;;0.17;62.57;100966.00;4939072;28;20111;-83
2024/01/14 08:21:25;;;;;;;0.10;0.10;;;;;;;0.20;62.62;100960.94;4955168;28;20035;-83
2024/01/14 08:23:50;;;;;;;0.15;0.15;;;;;;;0.39;61.98;100973.63;4954973;28;20031;-83
2024/01/14 08:26:16;;;;;;;0.20;0.20;;;;;;;0.23;60.96;100927.84;4938638;28;20109;-83
2024/01/14 08:28:42;;;;;;;0.10;0.10;;;;;;;0.31;60.90;100947.34;4939199;28;20484;-83
2024/01/14 08:31:07;;;;;;;0.20;0.20;;;;;;;0.35;61.07;100951.56;4938706;28;20485;-83
2024/01/14 08:33:33;;;;;;;0.20;0.20;;;;;;;0.38;60.91;100939.69;4938957;28;20031;-83
2024/01/14 08:35:59;;;;;;;0.20;0.20;;;;;;;0.33;61.40;100948.19;4954820;28;20031;-83
2024/01/14 08:38:24;;;;;;;0.20;0.20;;;;;;;0.25;61.38;100943.13;4923130;28;20030;-83
2024/01/14 08:40:51;;;;;;;0.20;0.20;;;;;;;0.57;60.97;100960.84;4938411;28;20042;-83
2024/01/14 08:43:17;;;;;;;0.20;0.20;;;;;;;0.67;60.97;100959.13;4923065;28;20037;-83
2024/01/14 08:45:42;;;;;;;0.20;0.20;;;;;;;0.80;60.74;100956.56;4938905;28;20034;-83
2024/01/14 08:48:10;;;;;;;0.20;0.20;;;;;;;0.81;60.41;100942.97;4954839;28;20037;-83
2024/01/14 08:50:36;;;;;;;0.20;0.20;;;;;;;1.01;60.19;100957.31;4939088;28;20070;-83
2024/01/14 08:53:01;;;;;;;0.20;0.20;;;;;;;1.10;60.40;100953.03;4954403;28;20066;-83
2024/01/14 08:55:28;;;;;;;0.20;0.20;;;;;;;1.28;60.02;100957.19;4938279;28;20604;-83
2024/01/14 08:57:54;;;;;;;0.20;0.20;;;;;;;1.33;59.84;100940.16;4955045;28;20464;-84
2024/01/14 09:00:20;;;;;;;0.20;0.20;;;;;;;1.52;58.69;100942.59;4954729;28;20030;-83
2024/01/14 09:02:46;;;;;;;0.20;0.20;;;;;;;1.61;57.65;100939.97;4954466;28;20066;-84
2024/01/14 09:05:11;;;;;;;0.20;0.20;;;;;;;1.80;58.93;100950.88;4938506;28;20058;-83
2024/01/14 09:07:37;;;;;;;0.20;0.20;;;;;;;1.90;59.71;100948.25;4938759;28;20062;-83
2024/01/14 09:10:03;;;;;;;0.20;0.20;;;;;;;2.07;59.73;100954.91;4954370;28;20512;-83
2024/01/14 09:12:29;;;;;;;0.20;0.20;;;;;;;1.96;60.33;100934.56;4938423;28;20035;-83
2024/01/14 09:14:54;;;;;;;0.20;0.20;;;;;;;2.04;60.39;100926.84;4923029;28;20058;-84
2024/01/14 09:17:20;;;;;;;0.20;0.20;;;;;;;2.17;60.70;100925.91;4938643;28;20518;-84
2024/01/14 09:19:45;;;;;;;0.20;0.20;;;;;;;2.40;61.31;100934.16;4938700;28;20474;-83
2024/01/14 09:22:11;;;;;;;0.20;0.20;;;;;;;2.46;60.36;100900.91;4922628;28;20031;-83
2024/01/14 09:24:37;;;;;;;0.17;0.17;;;;;;;2.49;59.98;100913.63;4938088;28;20105;-84
2024/01/14 09:27:03;;;;;;;0.20;0.20;;;;;;;2.64;58.95;100906.66;4954636;28;20038;-83
2024/01/14 09:29:29;;;;;;;0.20;0.20;;;;;;;2.61;59.20;100910.09;4938663;28;20023;-84
2024/01/14 09:31:55;;;;;;;0.20;0.20;;;;;;;2.83;58.66;100908.13;4938797;28;20027;-83
2024/01/14 09:34:20;;;;;;;0.20;0.20;;;;;;;2.92;57.54;100900.34;4938138;28;20109;-83
2024/01/14 09:36:46;;;;;;;0.20;0.20;;;;;;;2.95;57.00;100904.53;4938359;28;20030;-84
2024/01/14 09:39:12;;;;;;;0.20;0.20;;;;;;;3.10;57.12;100897.53;4954041;28;20066;-84
2024/01/14 09:42:03;;;;;;;0.20;0.20;;;;;;;3.13;56.55;100907.69;4954736;28;20061;-84
2024/01/14 09:44:29;;;;;;;0.20;0.20;;;;;;;3.13;56.03;100882.13;4971841;28;20031;-83
2024/01/14 09:46:55;;;;;;;0.20;0.20;;;;;;;3.11;56.57;100863.44;4938415;28;20489;-84
2024/01/14 09:49:21;;;;;;;0.20;0.20;;;;;;;3.29;56.83;100881.94;4938148;28;20030;-84
2024/01/14 09:51:48;;;;;;;0.20;0.20;;;;;;;3.35;57.22;100886.97;4938030;28;20031;-84
2024/01/14 09:54:14;;;;;;;0.20;0.20;;;;;;;3.45;56.97;100885.97;4922130;28;20034;-83
2024/01/14 09:56:39;;;;;;;0.20;0.20;;;;;;;3.54;56.29;100882.38;4941012;28;20405;-84
2024/01/14 09:59:06;;;;;;;0.20;0.20;;;;;;;3.57;55.99;100860.16;4941913;28;20499;-84
2024/01/14 10:01:32;;;;;;;0.20;0.20;;;;;;;3.70;56.28;100864.22;4942459;28;20041;-84
2024/01/14 10:04:01;;;;;;;0.20;0.20;;;;;;;3.87;56.34;100855.41;4941728;28;20030;-84
2024/01/14 10:06:27;;;;;;;0.20;0.20;;;;;;;4.04;55.69;100848.28;4941849;28;20051;-84
2024/01/14 10:08:53;;;;;;;0.13;0.13;;;;;;;4.02;55.36;100827.78;4941571;28;20046;-85
2024/01/14 10:11:19;;;;;;;0.20;0.20;;;;;;;4.34;55.11;100861.38;4957389;28;20478;-84
2024/01/14 10:13:44;;;;;;;0.20;0.20;;;;;;;4.45;54.77;100865.41;4941749;28;20038;-84
2024/01/14 10:16:13;;;;;;;0.10;0.10;;;;;;;4.45;54.65;100865.41;4941534;28;20030;-84
2024/01/14 10:18:38;;;;;;;0.20;0.20;;;;;;;4.43;54.92;100856.06;4925624;28;20386;-84
2024/01/14 10:21:04;;;;;;;0.20;0.20;;;;;;;4.30;54.71;100858.84;4957422;28;20034;-84
2024/01/14 10:23:31;;;;;;;0.20;0.20;;;;;;;4.39;55.16;100854.41;4941102;28;20074;-84
2024/01/14 10:26:01;;;;;;;0.20;0.20;;;;;;;4.46;54.58;100859.41;4925333;28;20062;-84
2024/01/14 10:28:39;;;;;;;0.20;0.20;;;;;;;4.55;55.08;100850.69;4926406;28;20055;-85
2024/01/14 10:31:08;;;;;;;0.20;0.20;;;;;;;4.62;54.72;100844.53;4942187;28;20027;-85
2024/01/14 10:33:34;;;;;;;0.20;0.20;;;;;;;4.81;54.18;100848.41;4942018;28;20035;-85
2024/01/14 10:36:00;;;;;;;0.20;0.20;;;;;;;4.99;53.66;100841.19;4924843;28;20035;-84
2024/01/14 10:38:26;;;;;;;0.20;0.20;;;;;;;5.05;52.96;100835.94;4941509;28;20034;-84
2024/01/14 10:40:52;;;;;;;0.20;0.20;;;;;;;5.30;52.71;100837.03;4940738;28;20085;-84
2024/01/14 10:43:17;;;;;;;0.20;0.20;;;;;;;5.52;52.79;100839.09;4940861;28;20027;-85
2024/01/14 10:45:45;;;;;;;0.20;0.20;;;;;;;5.71;52.59;100841.16;4925023;28;20576;-84
2024/01/14 10:48:13;;;;;;;0.20;0.20;;;;;;;5.78;52.88;100843.56;4940874;28;20031;-84
2024/01/14 10:50:41;;;;;;;0.20;0.20;;;;;;;5.83;53.36;100829.72;4924987;28;20041;-84
2024/01/14 10:53:07;;;;;;;0.20;0.20;;;;;;;5.89;52.69;100821.84;4940975;28;20027;-84
2024/01/14 10:55:45;;;;;;;0.20;0.20;;;;;;;6.07;52.77;100840.25;4940829;28;20027;-84
2024/01/14 10:58:29;;;;;;;0.20;0.20;;;;;;;6.15;52.61;100828.91;4924942;28;20031;-85
2024/01/14 11:01:01;;;;;;;0.20;0.20;;;;;;;6.25;53.94;100832.06;4942391;28;20484;-84
2024/01/14 11:03:28;;;;;;;0.20;0.20;;;;;;;6.32;52.39;100808.72;4925564;28;20113;-84
2024/01/14 11:05:53;;;;;;;0.20;0.20;;;;;;;6.71;50.46;100838.47;4939937;28;20104;-84
2024/01/14 11:08:19;;;;;;;0.20;0.20;;;;;;;6.70;52.31;100826.50;4955879;28;20027;-85
2024/01/14 11:10:45;;;;;;;0.20;0.20;;;;;;;6.78;51.61;100814.22;4973556;28;20081;-85
2024/01/14 11:13:38;;;;;;;0.20;0.20;;;;;;;6.87;51.82;100829.38;4940331;28;20031;-85
2024/01/14 11:16:13;;;;;;;0.20;0.20;;;;;;;6.90;51.34;100819.03;4925509;28;20039;-85
2024/01/14 11:18:43;;;;;;;0.20;0.20;;;;;;;7.16;41.16;100813.03;4940223;28;20034;-85
2024/01/14 11:21:29;;;;;;;0.20;0.20;;;;;;;7.57;39.19;100810.84;4940530;28;20035;-84